sensor_id;sensor_type;location;lat;lon;timestamp;P1;durP1;ratioP1;P2;durP2;ratioP2
79585;SDS011;69054;50.866;4.636;2023-12-14T00:00:11;52.45;;;18.48;;
79585;SDS011;69054;50.866;4.636;2023-12-14T00:02:37;51.38;;;17.67;;
79585;SDS011;69054;50.866;4.636;2023-12-14T00:05:03;50.40;;;18.10;;
79585;SDS011;69054;50.866;4.636;2023-12-14T00:07:29;54.40;;;19.60;;
79585;SDS011;69054;50.866;4.636;2023-12-14T00:09:54;45.33;;;18.40;;
79585;SDS011;69054;50.866;4.636;2023-12-14T00:12:19;54.13;;;19.23;;
79585;SDS011;69054;50.866;4.636;2023-12-14T00:14:45;54.22;;;19.75;;
79585;SDS011;69054;50.866;4.636;2023-12-14T00:17:10;49.58;;;19.05;;
79585;SDS011;69054;50.866;4.636;2023-12-14T00:19:36;53.47;;;18.63;;
79585;SDS011;69054;50.866;4.636;2023-12-14T00:22:01;53.22;;;19.35;;
79585;SDS011;69054;50.866;4.636;2023-12-14T00:24:26;49.63;;;19.42;;
79585;SDS011;69054;50.866;4.636;2023-12-14T00:26:52;48.80;;;18.10;;
79585;SDS011;69054;50.866;4.636;2023-12-14T00:29:17;49.33;;;16.85;;
79585;SDS011;69054;50.866;4.636;2023-12-14T00:31:43;53.13;;;17.77;;
79585;SDS011;69054;50.866;4.636;2023-12-14T00:34:08;52.55;;;18.58;;
79585;SDS011;69054;50.866;4.636;2023-12-14T00:36:34;50.58;;;18.15;;
79585;SDS011;69054;50.866;4.636;2023-12-14T00:38:59;53.20;;;19.75;;
79585;SDS011;69054;50.866;4.636;2023-12-14T00:41:24;52.53;;;18.20;;
79585;SDS011;69054;50.866;4.636;2023-12-14T00:43:50;51.30;;;18.92;;
79585;SDS011;69054;50.866;4.636;2023-12-14T00:46:15;50.90;;;18.73;;
79585;SDS011;69054;50.866;4.636;2023-12-14T00:48:41;48.13;;;18.35;;
79585;SDS011;69054;50.866;4.636;2023-12-14T00:51:06;52.30;;;18.00;;
79585;SDS011;69054;50.866;4.636;2023-12-14T00:53:31;59.10;;;19.73;;
79585;SDS011;69054;50.866;4.636;2023-12-14T00:55:57;47.70;;;17.80;;
79585;SDS011;69054;50.866;4.636;2023-12-14T00:58:22;54.60;;;18.88;;
79585;SDS011;69054;50.866;4.636;2023-12-14T01:00:48;53.83;;;17.90;;
79585;SDS011;69054;50.866;4.636;2023-12-14T01:03:13;49.90;;;18.75;;
79585;SDS011;69054;50.866;4.636;2023-12-14T01:05:39;48.65;;;17.55;;
79585;SDS011;69054;50.866;4.636;2023-12-14T01:08:04;54.35;;;17.92;;
79585;SDS011;69054;50.866;4.636;2023-12-14T01:10:30;49.45;;;17.13;;
79585;SDS011;69054;50.866;4.636;2023-12-14T01:12:56;47.75;;;16.85;;
79585;SDS011;69054;50.866;4.636;2023-12-14T01:15:21;48.40;;;15.90;;
79585;SDS011;69054;50.866;4.636;2023-12-14T01:17:47;55.53;;;18.17;;
79585;SDS011;69054;50.866;4.636;2023-12-14T01:20:12;52.30;;;18.20;;
79585;SDS011;69054;50.866;4.636;2023-12-14T01:22:37;50.83;;;17.17;;
79585;SDS011;69054;50.866;4.636;2023-12-14T01:25:03;44.95;;;15.70;;
79585;SDS011;69054;50.866;4.636;2023-12-14T01:27:29;47.33;;;17.80;;
79585;SDS011;69054;50.866;4.636;2023-12-14T01:29:54;51.78;;;17.27;;
79585;SDS011;69054;50.866;4.636;2023-12-14T01:32:19;54.42;;;17.40;;
79585;SDS011;69054;50.866;4.636;2023-12-14T01:34:45;52.00;;;17.60;;
79585;SDS011;69054;50.866;4.636;2023-12-14T01:37:10;48.95;;;17.20;;
79585;SDS011;69054;50.866;4.636;2023-12-14T01:39:36;47.97;;;15.57;;
79585;SDS011;69054;50.866;4.636;2023-12-14T01:42:01;50.20;;;16.30;;
79585;SDS011;69054;50.866;4.636;2023-12-14T01:44:27;51.47;;;18.25;;
79585;SDS011;69054;50.866;4.636;2023-12-14T01:46:52;43.72;;;15.65;;
79585;SDS011;69054;50.866;4.636;2023-12-14T01:49:17;45.17;;;15.88;;
79585;SDS011;69054;50.866;4.636;2023-12-14T01:51:43;48.97;;;16.38;;
79585;SDS011;69054;50.866;4.636;2023-12-14T01:54:08;47.40;;;16.02;;
79585;SDS011;69054;50.866;4.636;2023-12-14T01:56:34;46.03;;;16.20;;
79585;SDS011;69054;50.866;4.636;2023-12-14T01:58:59;40.35;;;14.55;;
79585;SDS011;69054;50.866;4.636;2023-12-14T02:01:43;43.45;;;13.88;;
79585;SDS011;69054;50.866;4.636;2023-12-14T02:04:10;43.30;;;15.52;;
79585;SDS011;69054;50.866;4.636;2023-12-14T02:06:37;41.92;;;16.45;;
79585;SDS011;69054;50.866;4.636;2023-12-14T02:09:03;34.50;;;12.50;;
79585;SDS011;69054;50.866;4.636;2023-12-14T02:11:29;41.17;;;13.48;;
79585;SDS011;69054;50.866;4.636;2023-12-14T02:13:54;42.55;;;13.50;;
79585;SDS011;69054;50.866;4.636;2023-12-14T02:16:20;36.05;;;11.18;;
79585;SDS011;69054;50.866;4.636;2023-12-14T02:18:45;33.00;;;11.98;;
79585;SDS011;69054;50.866;4.636;2023-12-14T02:21:10;28.30;;;11.20;;
79585;SDS011;69054;50.866;4.636;2023-12-14T02:23:45;32.60;;;13.07;;
79585;SDS011;69054;50.866;4.636;2023-12-14T02:26:11;37.88;;;13.13;;
79585;SDS011;69054;50.866;4.636;2023-12-14T02:28:37;35.90;;;11.93;;
79585;SDS011;69054;50.866;4.636;2023-12-14T02:31:03;40.58;;;13.07;;
79585;SDS011;69054;50.866;4.636;2023-12-14T02:33:28;37.35;;;13.10;;
79585;SDS011;69054;50.866;4.636;2023-12-14T02:35:54;42.03;;;12.25;;
79585;SDS011;69054;50.866;4.636;2023-12-14T02:38:19;30.38;;;10.40;;
79585;SDS011;69054;50.866;4.636;2023-12-14T02:40:44;33.75;;;12.52;;
79585;SDS011;69054;50.866;4.636;2023-12-14T02:43:10;35.13;;;11.73;;
79585;SDS011;69054;50.866;4.636;2023-12-14T02:45:35;30.55;;;11.02;;
79585;SDS011;69054;50.866;4.636;2023-12-14T02:48:01;29.80;;;11.00;;
79585;SDS011;69054;50.866;4.636;2023-12-14T02:50:26;29.50;;;10.45;;
79585;SDS011;69054;50.866;4.636;2023-12-14T02:52:52;27.73;;;9.95;;
79585;SDS011;69054;50.866;4.636;2023-12-14T02:55:17;30.08;;;11.30;;
79585;SDS011;69054;50.866;4.636;2023-12-14T02:57:42;32.17;;;12.80;;
79585;SDS011;69054;50.866;4.636;2023-12-14T03:00:08;29.83;;;10.77;;
79585;SDS011;69054;50.866;4.636;2023-12-14T03:02:34;30.60;;;10.30;;
79585;SDS011;69054;50.866;4.636;2023-12-14T03:04:59;27.80;;;10.23;;
79585;SDS011;69054;50.866;4.636;2023-12-14T03:07:25;27.33;;;10.55;;
79585;SDS011;69054;50.866;4.636;2023-12-14T03:09:50;24.88;;;10.50;;
79585;SDS011;69054;50.866;4.636;2023-12-14T03:12:16;30.15;;;10.43;;
79585;SDS011;69054;50.866;4.636;2023-12-14T03:14:41;33.10;;;12.43;;
79585;SDS011;69054;50.866;4.636;2023-12-14T03:17:07;30.88;;;11.25;;
79585;SDS011;69054;50.866;4.636;2023-12-14T03:19:40;28.75;;;10.75;;
79585;SDS011;69054;50.866;4.636;2023-12-14T03:22:06;32.25;;;12.13;;
79585;SDS011;69054;50.866;4.636;2023-12-14T03:24:32;34.78;;;11.32;;
79585;SDS011;69054;50.866;4.636;2023-12-14T03:26:57;30.67;;;11.70;;
79585;SDS011;69054;50.866;4.636;2023-12-14T03:29:23;33.60;;;12.20;;
79585;SDS011;69054;50.866;4.636;2023-12-14T03:31:48;28.00;;;12.43;;
79585;SDS011;69054;50.866;4.636;2023-12-14T03:34:14;32.65;;;11.60;;
79585;SDS011;69054;50.866;4.636;2023-12-14T03:36:39;30.67;;;10.88;;
79585;SDS011;69054;50.866;4.636;2023-12-14T03:39:04;31.73;;;12.25;;
79585;SDS011;69054;50.866;4.636;2023-12-14T03:41:31;28.88;;;10.90;;
79585;SDS011;69054;50.866;4.636;2023-12-14T03:43:57;29.50;;;11.27;;
79585;SDS011;69054;50.866;4.636;2023-12-14T03:46:22;25.48;;;9.45;;
79585;SDS011;69054;50.866;4.636;2023-12-14T03:48:48;28.25;;;9.68;;
79585;SDS011;69054;50.866;4.636;2023-12-14T03:51:17;20.77;;;8.90;;
79585;SDS011;69054;50.866;4.636;2023-12-14T03:53:43;26.42;;;10.60;;
79585;SDS011;69054;50.866;4.636;2023-12-14T03:56:09;24.70;;;9.90;;
79585;SDS011;69054;50.866;4.636;2023-12-14T03:58:34;24.85;;;8.80;;
79585;SDS011;69054;50.866;4.636;2023-12-14T04:01:00;23.90;;;8.82;;
79585;SDS011;69054;50.866;4.636;2023-12-14T04:03:25;20.08;;;8.15;;
79585;SDS011;69054;50.866;4.636;2023-12-14T04:05:51;15.57;;;7.00;;
79585;SDS011;69054;50.866;4.636;2023-12-14T04:08:16;20.50;;;7.85;;
79585;SDS011;69054;50.866;4.636;2023-12-14T04:10:42;17.85;;;7.53;;
79585;SDS011;69054;50.866;4.636;2023-12-14T04:13:07;21.20;;;8.82;;
79585;SDS011;69054;50.866;4.636;2023-12-14T04:15:32;19.58;;;8.18;;
79585;SDS011;69054;50.866;4.636;2023-12-14T04:17:58;22.95;;;9.25;;
79585;SDS011;69054;50.866;4.636;2023-12-14T04:20:23;26.65;;;9.73;;
79585;SDS011;69054;50.866;4.636;2023-12-14T04:22:49;17.70;;;7.03;;
79585;SDS011;69054;50.866;4.636;2023-12-14T04:25:14;19.63;;;8.18;;
79585;SDS011;69054;50.866;4.636;2023-12-14T04:27:40;20.63;;;8.60;;
79585;SDS011;69054;50.866;4.636;2023-12-14T04:30:05;16.85;;;7.97;;
79585;SDS011;69054;50.866;4.636;2023-12-14T04:32:35;19.77;;;7.75;;
79585;SDS011;69054;50.866;4.636;2023-12-14T04:35:04;21.38;;;7.75;;
79585;SDS011;69054;50.866;4.636;2023-12-14T04:37:30;19.13;;;8.60;;
79585;SDS011;69054;50.866;4.636;2023-12-14T04:39:56;21.00;;;8.73;;
79585;SDS011;69054;50.866;4.636;2023-12-14T04:42:22;17.70;;;7.65;;
79585;SDS011;69054;50.866;4.636;2023-12-14T04:44:48;21.58;;;8.40;;
79585;SDS011;69054;50.866;4.636;2023-12-14T04:47:13;22.15;;;9.50;;
79585;SDS011;69054;50.866;4.636;2023-12-14T04:49:39;21.38;;;8.25;;
79585;SDS011;69054;50.866;4.636;2023-12-14T04:52:04;21.15;;;9.02;;
79585;SDS011;69054;50.866;4.636;2023-12-14T04:54:30;22.23;;;10.73;;
79585;SDS011;69054;50.866;4.636;2023-12-14T04:56:56;20.02;;;9.30;;
79585;SDS011;69054;50.866;4.636;2023-12-14T04:59:21;19.15;;;8.80;;
79585;SDS011;69054;50.866;4.636;2023-12-14T05:01:47;20.88;;;9.05;;
79585;SDS011;69054;50.866;4.636;2023-12-14T05:04:12;21.30;;;9.40;;
79585;SDS011;69054;50.866;4.636;2023-12-14T05:06:38;23.65;;;9.02;;
79585;SDS011;69054;50.866;4.636;2023-12-14T05:09:03;26.17;;;8.70;;
79585;SDS011;69054;50.866;4.636;2023-12-14T05:11:30;20.73;;;10.32;;
79585;SDS011;69054;50.866;4.636;2023-12-14T05:13:56;20.63;;;9.02;;
79585;SDS011;69054;50.866;4.636;2023-12-14T05:16:22;18.27;;;8.60;;
79585;SDS011;69054;50.866;4.636;2023-12-14T05:18:51;21.10;;;9.18;;
79585;SDS011;69054;50.866;4.636;2023-12-14T05:21:17;19.70;;;9.45;;
79585;SDS011;69054;50.866;4.636;2023-12-14T05:23:43;20.17;;;9.68;;
79585;SDS011;69054;50.866;4.636;2023-12-14T05:26:08;19.58;;;9.77;;
79585;SDS011;69054;50.866;4.636;2023-12-14T05:28:34;23.13;;;9.75;;
79585;SDS011;69054;50.866;4.636;2023-12-14T05:31:00;21.70;;;10.05;;
79585;SDS011;69054;50.866;4.636;2023-12-14T05:33:26;21.05;;;10.10;;
79585;SDS011;69054;50.866;4.636;2023-12-14T05:35:51;19.65;;;9.20;;
79585;SDS011;69054;50.866;4.636;2023-12-14T05:38:16;21.42;;;10.05;;
79585;SDS011;69054;50.866;4.636;2023-12-14T05:40:42;21.95;;;9.77;;
79585;SDS011;69054;50.866;4.636;2023-12-14T05:43:08;22.50;;;10.63;;
79585;SDS011;69054;50.866;4.636;2023-12-14T05:45:34;24.40;;;10.45;;
79585;SDS011;69054;50.866;4.636;2023-12-14T05:48:00;23.17;;;10.18;;
79585;SDS011;69054;50.866;4.636;2023-12-14T05:50:27;23.35;;;10.65;;
79585;SDS011;69054;50.866;4.636;2023-12-14T05:52:52;22.23;;;10.73;;
79585;SDS011;69054;50.866;4.636;2023-12-14T05:55:18;23.40;;;9.68;;
79585;SDS011;69054;50.866;4.636;2023-12-14T05:57:47;20.67;;;10.20;;
79585;SDS011;69054;50.866;4.636;2023-12-14T06:00:13;24.25;;;10.10;;
79585;SDS011;69054;50.866;4.636;2023-12-14T06:02:38;22.23;;;9.88;;
79585;SDS011;69054;50.866;4.636;2023-12-14T06:05:05;21.33;;;9.25;;
79585;SDS011;69054;50.866;4.636;2023-12-14T06:07:31;21.95;;;10.60;;
79585;SDS011;69054;50.866;4.636;2023-12-14T06:09:57;23.92;;;10.52;;
79585;SDS011;69054;50.866;4.636;2023-12-14T06:12:22;21.55;;;10.13;;
79585;SDS011;69054;50.866;4.636;2023-12-14T06:14:48;24.48;;;10.82;;
79585;SDS011;69054;50.866;4.636;2023-12-14T06:17:15;22.15;;;9.82;;
79585;SDS011;69054;50.866;4.636;2023-12-14T06:19:40;22.73;;;11.00;;
79585;SDS011;69054;50.866;4.636;2023-12-14T06:22:06;17.90;;;8.93;;
79585;SDS011;69054;50.866;4.636;2023-12-14T06:24:31;24.05;;;10.32;;
79585;SDS011;69054;50.866;4.636;2023-12-14T06:26:57;20.17;;;10.00;;
79585;SDS011;69054;50.866;4.636;2023-12-14T06:29:22;22.30;;;10.43;;
79585;SDS011;69054;50.866;4.636;2023-12-14T06:31:48;22.35;;;10.13;;
79585;SDS011;69054;50.866;4.636;2023-12-14T06:34:14;22.90;;;9.88;;
79585;SDS011;69054;50.866;4.636;2023-12-14T06:36:42;24.13;;;10.93;;
79585;SDS011;69054;50.866;4.636;2023-12-14T06:39:09;19.83;;;9.77;;
79585;SDS011;69054;50.866;4.636;2023-12-14T06:41:35;27.17;;;11.20;;
79585;SDS011;69054;50.866;4.636;2023-12-14T06:44:01;23.65;;;9.52;;
79585;SDS011;69054;50.866;4.636;2023-12-14T06:46:27;21.70;;;9.60;;
79585;SDS011;69054;50.866;4.636;2023-12-14T06:48:52;20.48;;;10.43;;
79585;SDS011;69054;50.866;4.636;2023-12-14T06:51:19;21.60;;;9.32;;
79585;SDS011;69054;50.866;4.636;2023-12-14T06:53:44;20.88;;;9.60;;
79585;SDS011;69054;50.866;4.636;2023-12-14T06:56:11;21.40;;;9.65;;
79585;SDS011;69054;50.866;4.636;2023-12-14T06:58:37;22.85;;;10.68;;
79585;SDS011;69054;50.866;4.636;2023-12-14T07:01:03;22.35;;;9.77;;
79585;SDS011;69054;50.866;4.636;2023-12-14T07:03:29;19.60;;;9.60;;
79585;SDS011;69054;50.866;4.636;2023-12-14T07:05:57;21.83;;;9.38;;
79585;SDS011;69054;50.866;4.636;2023-12-14T07:08:23;20.92;;;9.13;;
79585;SDS011;69054;50.866;4.636;2023-12-14T07:10:49;21.23;;;10.30;;
79585;SDS011;69054;50.866;4.636;2023-12-14T07:13:15;21.42;;;10.63;;
79585;SDS011;69054;50.866;4.636;2023-12-14T07:15:40;26.58;;;10.30;;
79585;SDS011;69054;50.866;4.636;2023-12-14T07:18:06;21.80;;;10.45;;
79585;SDS011;69054;50.866;4.636;2023-12-14T07:20:31;23.35;;;11.00;;
79585;SDS011;69054;50.866;4.636;2023-12-14T07:22:57;22.65;;;10.85;;
79585;SDS011;69054;50.866;4.636;2023-12-14T07:25:22;21.10;;;9.48;;
79585;SDS011;69054;50.866;4.636;2023-12-14T07:27:48;22.70;;;9.43;;
79585;SDS011;69054;50.866;4.636;2023-12-14T07:30:13;21.73;;;8.82;;
79585;SDS011;69054;50.866;4.636;2023-12-14T07:32:39;22.55;;;10.20;;
79585;SDS011;69054;50.866;4.636;2023-12-14T07:35:05;21.40;;;9.55;;
79585;SDS011;69054;50.866;4.636;2023-12-14T07:37:31;20.15;;;9.65;;
79585;SDS011;69054;50.866;4.636;2023-12-14T07:39:56;21.55;;;10.25;;
79585;SDS011;69054;50.866;4.636;2023-12-14T07:42:23;22.67;;;10.82;;
79585;SDS011;69054;50.866;4.636;2023-12-14T07:44:48;23.63;;;10.07;;
79585;SDS011;69054;50.866;4.636;2023-12-14T07:47:14;22.23;;;10.23;;
79585;SDS011;69054;50.866;4.636;2023-12-14T07:49:40;22.42;;;9.75;;
79585;SDS011;69054;50.866;4.636;2023-12-14T07:52:06;20.88;;;9.55;;
79585;SDS011;69054;50.866;4.636;2023-12-14T07:54:31;23.98;;;10.15;;
79585;SDS011;69054;50.866;4.636;2023-12-14T07:56:57;23.85;;;10.48;;
79585;SDS011;69054;50.866;4.636;2023-12-14T07:59:23;25.02;;;10.65;;
79585;SDS011;69054;50.866;4.636;2023-12-14T08:01:48;24.55;;;10.32;;
79585;SDS011;69054;50.866;4.636;2023-12-14T08:04:13;26.65;;;10.95;;
79585;SDS011;69054;50.866;4.636;2023-12-14T08:06:39;23.00;;;9.77;;
79585;SDS011;69054;50.866;4.636;2023-12-14T08:09:05;27.10;;;11.23;;
79585;SDS011;69054;50.866;4.636;2023-12-14T08:11:32;28.75;;;10.35;;
79585;SDS011;69054;50.866;4.636;2023-12-14T08:13:58;27.77;;;10.65;;
79585;SDS011;69054;50.866;4.636;2023-12-14T08:16:23;27.08;;;9.80;;
79585;SDS011;69054;50.866;4.636;2023-12-14T08:18:49;29.27;;;10.68;;
79585;SDS011;69054;50.866;4.636;2023-12-14T08:21:15;22.02;;;8.98;;
79585;SDS011;69054;50.866;4.636;2023-12-14T08:23:41;26.52;;;10.52;;
79585;SDS011;69054;50.866;4.636;2023-12-14T08:26:07;24.40;;;9.88;;
79585;SDS011;69054;50.866;4.636;2023-12-14T08:28:35;21.77;;;9.73;;
79585;SDS011;69054;50.866;4.636;2023-12-14T08:31:00;22.67;;;9.55;;
79585;SDS011;69054;50.866;4.636;2023-12-14T08:33:28;23.67;;;10.45;;
79585;SDS011;69054;50.866;4.636;2023-12-14T08:35:54;18.48;;;8.73;;
79585;SDS011;69054;50.866;4.636;2023-12-14T08:38:20;22.10;;;9.55;;
79585;SDS011;69054;50.866;4.636;2023-12-14T08:40:45;22.15;;;9.80;;
79585;SDS011;69054;50.866;4.636;2023-12-14T08:43:11;22.27;;;9.35;;
79585;SDS011;69054;50.866;4.636;2023-12-14T08:45:37;20.05;;;8.77;;
79585;SDS011;69054;50.866;4.636;2023-12-14T08:48:02;21.10;;;9.98;;
79585;SDS011;69054;50.866;4.636;2023-12-14T08:50:28;19.25;;;9.00;;
79585;SDS011;69054;50.866;4.636;2023-12-14T08:52:53;20.27;;;9.80;;
79585;SDS011;69054;50.866;4.636;2023-12-14T08:55:19;22.65;;;9.27;;
79585;SDS011;69054;50.866;4.636;2023-12-14T08:57:44;20.23;;;8.27;;
79585;SDS011;69054;50.866;4.636;2023-12-14T09:00:10;23.52;;;9.85;;
79585;SDS011;69054;50.866;4.636;2023-12-14T09:02:36;21.33;;;9.75;;
79585;SDS011;69054;50.866;4.636;2023-12-14T09:05:02;26.30;;;11.02;;
79585;SDS011;69054;50.866;4.636;2023-12-14T09:07:29;27.73;;;11.05;;
79585;SDS011;69054;50.866;4.636;2023-12-14T09:09:55;27.77;;;10.93;;
79585;SDS011;69054;50.866;4.636;2023-12-14T09:12:21;24.67;;;9.93;;
79585;SDS011;69054;50.866;4.636;2023-12-14T09:14:46;22.27;;;10.38;;
79585;SDS011;69054;50.866;4.636;2023-12-14T09:17:12;22.25;;;10.75;;
79585;SDS011;69054;50.866;4.636;2023-12-14T09:19:38;23.63;;;11.20;;
79585;SDS011;69054;50.866;4.636;2023-12-14T09:22:03;25.75;;;11.27;;
79585;SDS011;69054;50.866;4.636;2023-12-14T09:24:29;25.35;;;10.48;;
79585;SDS011;69054;50.866;4.636;2023-12-14T09:26:55;21.67;;;10.82;;
79585;SDS011;69054;50.866;4.636;2023-12-14T09:29:20;22.95;;;10.88;;
79585;SDS011;69054;50.866;4.636;2023-12-14T09:31:45;20.17;;;10.65;;
79585;SDS011;69054;50.866;4.636;2023-12-14T09:34:11;21.05;;;10.07;;
79585;SDS011;69054;50.866;4.636;2023-12-14T09:36:38;16.30;;;8.68;;
79585;SDS011;69054;50.866;4.636;2023-12-14T09:39:04;18.55;;;9.30;;
79585;SDS011;69054;50.866;4.636;2023-12-14T09:41:30;17.92;;;8.73;;
79585;SDS011;69054;50.866;4.636;2023-12-14T09:43:55;19.73;;;9.15;;
79585;SDS011;69054;50.866;4.636;2023-12-14T09:46:21;16.52;;;8.20;;
79585;SDS011;69054;50.866;4.636;2023-12-14T09:48:50;15.60;;;7.20;;
79585;SDS011;69054;50.866;4.636;2023-12-14T09:51:16;14.93;;;7.80;;
79585;SDS011;69054;50.866;4.636;2023-12-14T09:53:42;14.25;;;7.03;;
79585;SDS011;69054;50.866;4.636;2023-12-14T09:56:08;15.52;;;8.35;;
79585;SDS011;69054;50.866;4.636;2023-12-14T09:58:33;11.15;;;6.60;;
79585;SDS011;69054;50.866;4.636;2023-12-14T10:00:59;11.77;;;5.90;;
79585;SDS011;69054;50.866;4.636;2023-12-14T10:03:27;10.20;;;5.93;;
79585;SDS011;69054;50.866;4.636;2023-12-14T10:05:57;11.35;;;5.65;;
79585;SDS011;69054;50.866;4.636;2023-12-14T10:08:23;9.95;;;5.68;;
79585;SDS011;69054;50.866;4.636;2023-12-14T10:10:53;11.32;;;6.47;;
79585;SDS011;69054;50.866;4.636;2023-12-14T10:15:47;12.48;;;5.82;;
79585;SDS011;69054;50.866;4.636;2023-12-14T10:18:32;13.00;;;5.80;;
79585;SDS011;69054;50.866;4.636;2023-12-14T10:21:01;10.80;;;5.53;;
79585;SDS011;69054;50.866;4.636;2023-12-14T10:23:29;12.15;;;6.20;;
79585;SDS011;69054;50.866;4.636;2023-12-14T10:25:55;8.98;;;4.82;;
79585;SDS011;69054;50.866;4.636;2023-12-14T10:28:22;11.93;;;5.65;;
79585;SDS011;69054;50.866;4.636;2023-12-14T10:30:47;12.13;;;5.75;;
79585;SDS011;69054;50.866;4.636;2023-12-14T10:33:13;9.48;;;4.97;;
79585;SDS011;69054;50.866;4.636;2023-12-14T10:35:41;8.60;;;5.28;;
79585;SDS011;69054;50.866;4.636;2023-12-14T10:38:07;9.15;;;5.47;;
79585;SDS011;69054;50.866;4.636;2023-12-14T10:40:35;12.32;;;5.57;;
79585;SDS011;69054;50.866;4.636;2023-12-14T10:43:05;14.38;;;7.38;;
79585;SDS011;69054;50.866;4.636;2023-12-14T10:45:34;12.20;;;6.30;;
79585;SDS011;69054;50.866;4.636;2023-12-14T10:48:00;12.25;;;6.20;;
79585;SDS011;69054;50.866;4.636;2023-12-14T10:50:27;12.50;;;6.63;;
79585;SDS011;69054;50.866;4.636;2023-12-14T10:52:53;12.95;;;6.53;;
79585;SDS011;69054;50.866;4.636;2023-12-14T10:55:23;9.68;;;6.32;;
79585;SDS011;69054;50.866;4.636;2023-12-14T10:57:53;14.43;;;6.78;;
79585;SDS011;69054;50.866;4.636;2023-12-14T11:00:18;10.93;;;6.80;;
79585;SDS011;69054;50.866;4.636;2023-12-14T11:02:47;10.65;;;6.65;;
79585;SDS011;69054;50.866;4.636;2023-12-14T11:05:14;11.82;;;6.93;;
79585;SDS011;69054;50.866;4.636;2023-12-14T11:07:49;13.63;;;6.03;;
79585;SDS011;69054;50.866;4.636;2023-12-14T11:10:14;14.00;;;6.80;;
79585;SDS011;69054;50.866;4.636;2023-12-14T11:12:51;13.05;;;6.53;;
79585;SDS011;69054;50.866;4.636;2023-12-14T11:15:25;13.05;;;6.80;;
79585;SDS011;69054;50.866;4.636;2023-12-14T11:20:46;10.38;;;6.28;;
79585;SDS011;69054;50.866;4.636;2023-12-14T11:25:52;9.45;;;5.10;;
79585;SDS011;69054;50.866;4.636;2023-12-14T11:28:19;9.38;;;4.60;;
79585;SDS011;69054;50.866;4.636;2023-12-14T11:30:45;7.90;;;4.82;;
79585;SDS011;69054;50.866;4.636;2023-12-14T11:33:12;9.93;;;4.78;;
79585;SDS011;69054;50.866;4.636;2023-12-14T11:35:38;10.05;;;4.43;;
79585;SDS011;69054;50.866;4.636;2023-12-14T11:38:03;7.53;;;4.15;;
79585;SDS011;69054;50.866;4.636;2023-12-14T11:40:35;10.75;;;4.97;;
79585;SDS011;69054;50.866;4.636;2023-12-14T11:43:02;9.40;;;5.00;;
79585;SDS011;69054;50.866;4.636;2023-12-14T11:45:38;10.45;;;4.65;;
79585;SDS011;69054;50.866;4.636;2023-12-14T11:48:05;6.65;;;3.95;;
79585;SDS011;69054;50.866;4.636;2023-12-14T11:50:32;9.75;;;4.45;;
79585;SDS011;69054;50.866;4.636;2023-12-14T11:53:00;10.20;;;4.47;;
79585;SDS011;69054;50.866;4.636;2023-12-14T11:55:28;10.68;;;4.78;;
79585;SDS011;69054;50.866;4.636;2023-12-14T11:57:53;7.28;;;4.40;;
79585;SDS011;69054;50.866;4.636;2023-12-14T12:00:22;9.77;;;4.43;;
79585;SDS011;69054;50.866;4.636;2023-12-14T12:02:52;10.25;;;5.05;;
79585;SDS011;69054;50.866;4.636;2023-12-14T12:05:17;9.75;;;5.03;;
79585;SDS011;69054;50.866;4.636;2023-12-14T12:07:46;12.10;;;5.05;;
79585;SDS011;69054;50.866;4.636;2023-12-14T12:10:11;9.43;;;5.40;;
79585;SDS011;69054;50.866;4.636;2023-12-14T12:12:37;10.15;;;4.88;;
79585;SDS011;69054;50.866;4.636;2023-12-14T12:15:03;9.23;;;5.30;;
79585;SDS011;69054;50.866;4.636;2023-12-14T12:17:29;9.43;;;4.80;;
79585;SDS011;69054;50.866;4.636;2023-12-14T12:19:54;8.05;;;4.53;;
79585;SDS011;69054;50.866;4.636;2023-12-14T12:22:20;9.88;;;4.65;;
79585;SDS011;69054;50.866;4.636;2023-12-14T12:24:45;11.15;;;4.60;;
79585;SDS011;69054;50.866;4.636;2023-12-14T12:27:11;9.52;;;4.63;;
79585;SDS011;69054;50.866;4.636;2023-12-14T12:29:36;8.20;;;4.70;;
79585;SDS011;69054;50.866;4.636;2023-12-14T12:32:01;10.18;;;4.47;;
79585;SDS011;69054;50.866;4.636;2023-12-14T12:34:27;8.38;;;4.82;;
79585;SDS011;69054;50.866;4.636;2023-12-14T12:36:52;9.25;;;5.18;;
79585;SDS011;69054;50.866;4.636;2023-12-14T12:39:19;14.68;;;4.80;;
79585;SDS011;69054;50.866;4.636;2023-12-14T12:41:45;8.13;;;4.50;;
79585;SDS011;69054;50.866;4.636;2023-12-14T12:44:10;11.57;;;5.88;;
79585;SDS011;69054;50.866;4.636;2023-12-14T12:46:35;12.15;;;5.60;;
79585;SDS011;69054;50.866;4.636;2023-12-14T12:49:02;7.95;;;5.15;;
79585;SDS011;69054;50.866;4.636;2023-12-14T12:51:29;9.52;;;5.53;;
79585;SDS011;69054;50.866;4.636;2023-12-14T12:53:57;9.40;;;4.63;;
79585;SDS011;69054;50.866;4.636;2023-12-14T12:56:24;9.63;;;4.68;;
79585;SDS011;69054;50.866;4.636;2023-12-14T12:58:50;13.70;;;5.57;;
79585;SDS011;69054;50.866;4.636;2023-12-14T13:01:19;10.80;;;4.82;;
79585;SDS011;69054;50.866;4.636;2023-12-14T13:03:52;10.50;;;5.07;;
79585;SDS011;69054;50.866;4.636;2023-12-14T13:06:19;8.73;;;4.50;;
79585;SDS011;69054;50.866;4.636;2023-12-14T13:08:45;9.73;;;5.03;;
79585;SDS011;69054;50.866;4.636;2023-12-14T13:11:11;14.15;;;5.43;;
79585;SDS011;69054;50.866;4.636;2023-12-14T13:13:36;9.38;;;4.82;;
79585;SDS011;69054;50.866;4.636;2023-12-14T13:16:03;16.23;;;6.03;;
79585;SDS011;69054;50.866;4.636;2023-12-14T13:18:28;12.68;;;5.45;;
79585;SDS011;69054;50.866;4.636;2023-12-14T13:20:54;11.40;;;5.72;;
79585;SDS011;69054;50.866;4.636;2023-12-14T13:23:19;10.15;;;5.38;;
79585;SDS011;69054;50.866;4.636;2023-12-14T13:25:45;13.80;;;5.95;;
79585;SDS011;69054;50.866;4.636;2023-12-14T13:28:10;12.88;;;5.72;;
79585;SDS011;69054;50.866;4.636;2023-12-14T13:30:36;10.63;;;5.78;;
79585;SDS011;69054;50.866;4.636;2023-12-14T13:33:01;10.05;;;5.10;;
79585;SDS011;69054;50.866;4.636;2023-12-14T13:35:29;12.90;;;6.38;;
79585;SDS011;69054;50.866;4.636;2023-12-14T13:37:54;11.50;;;5.38;;
79585;SDS011;69054;50.866;4.636;2023-12-14T13:40:20;11.80;;;6.00;;
79585;SDS011;69054;50.866;4.636;2023-12-14T13:42:45;10.77;;;5.93;;
79585;SDS011;69054;50.866;4.636;2023-12-14T13:45:11;12.45;;;5.75;;
79585;SDS011;69054;50.866;4.636;2023-12-14T13:47:36;13.32;;;6.78;;
79585;SDS011;69054;50.866;4.636;2023-12-14T13:50:01;12.95;;;6.72;;
79585;SDS011;69054;50.866;4.636;2023-12-14T13:52:29;12.82;;;6.57;;
79585;SDS011;69054;50.866;4.636;2023-12-14T13:54:55;13.70;;;7.45;;
79585;SDS011;69054;50.866;4.636;2023-12-14T13:57:21;39.40;;;27.20;;
79585;SDS011;69054;50.866;4.636;2023-12-14T13:59:47;16.77;;;8.75;;
79585;SDS011;69054;50.866;4.636;2023-12-14T14:02:13;12.77;;;7.13;;
79585;SDS011;69054;50.866;4.636;2023-12-14T14:04:38;13.60;;;7.40;;
79585;SDS011;69054;50.866;4.636;2023-12-14T14:07:04;15.88;;;7.28;;
79585;SDS011;69054;50.866;4.636;2023-12-14T14:09:29;45.35;;;24.20;;
79585;SDS011;69054;50.866;4.636;2023-12-14T14:11:55;150.05;;;76.72;;
79585;SDS011;69054;50.866;4.636;2023-12-14T14:14:21;16.77;;;10.10;;
79585;SDS011;69054;50.866;4.636;2023-12-14T14:16:48;24.50;;;12.77;;
79585;SDS011;69054;50.866;4.636;2023-12-14T14:19:13;16.27;;;7.55;;
79585;SDS011;69054;50.866;4.636;2023-12-14T14:21:40;16.10;;;8.13;;
79585;SDS011;69054;50.866;4.636;2023-12-14T14:24:05;15.43;;;7.88;;
79585;SDS011;69054;50.866;4.636;2023-12-14T14:26:31;33.85;;;23.23;;
79585;SDS011;69054;50.866;4.636;2023-12-14T14:28:56;36.40;;;22.77;;
79585;SDS011;69054;50.866;4.636;2023-12-14T14:31:25;16.80;;;9.30;;